createdAt,value
2023-04-11T00:01:23.528Z,7.80
2023-04-11T00:03:50.464Z,7.80
2023-04-11T00:06:17.250Z,7.70
2023-04-11T00:08:44.360Z,7.60
2023-04-11T00:11:11.251Z,7.60
2023-04-11T00:13:38.397Z,7.50
2023-04-11T00:16:07.642Z,7.50
2023-04-11T00:18:36.121Z,7.50
2023-04-11T00:21:04.388Z,7.50
2023-04-11T00:23:31.097Z,7.50
2023-04-11T00:25:58.360Z,7.50
2023-04-11T00:28:25.326Z,7.50
2023-04-11T00:30:51.949Z,7.60
2023-04-11T00:33:18.953Z,7.60
2023-04-11T00:35:45.839Z,7.60
2023-04-11T00:38:12.728Z,7.60
2023-04-11T00:40:40.525Z,7.60
2023-04-11T00:43:07.194Z,7.70
2023-04-11T00:45:34.134Z,7.70
2023-04-11T00:48:01.253Z,7.70
2023-04-11T00:50:28.549Z,7.80
2023-04-11T00:52:56.592Z,7.80
2023-04-11T00:55:24.109Z,7.80
2023-04-11T00:57:54.844Z,7.80
2023-04-11T01:00:22.386Z,7.80
2023-04-11T01:02:49.826Z,7.80
2023-04-11T01:05:17.424Z,7.80
2023-04-11T01:07:48.225Z,7.80
2023-04-11T01:10:16.418Z,7.80
2023-04-11T01:12:44.638Z,7.90
2023-04-11T01:15:11.534Z,7.90
2023-04-11T01:17:38.238Z,7.90
2023-04-11T01:20:07.759Z,8.00
2023-04-11T01:22:37.109Z,8.00
2023-04-11T01:25:04.818Z,8.00
2023-04-11T01:27:33.904Z,8.00
2023-04-11T01:30:01.447Z,8.00
2023-04-11T01:32:28.420Z,8.00
2023-04-11T01:34:57.925Z,8.00
2023-04-11T01:37:25.219Z,8.00
2023-04-11T01:39:52.079Z,8.00
2023-04-11T01:42:20.872Z,8.00
2023-04-11T01:44:50.640Z,8.00
2023-04-11T01:47:17.593Z,8.00
2023-04-11T01:49:44.210Z,7.90
2023-04-11T01:52:10.927Z,7.90
2023-04-11T01:54:37.563Z,7.90
2023-04-11T01:57:06.465Z,7.90
2023-04-11T01:59:33.084Z,7.90
2023-04-11T02:02:01.194Z,7.90
2023-04-11T02:04:28.065Z,7.90
2023-04-11T02:06:54.703Z,7.90
2023-04-11T02:09:21.367Z,7.80
2023-04-11T02:11:48.037Z,7.80
2023-04-11T02:14:18.175Z,7.80
2023-04-11T02:16:56.081Z,7.80
2023-04-11T02:19:25.787Z,7.80
2023-04-11T02:21:52.390Z,7.80
2023-04-11T02:24:19.304Z,7.80
2023-04-11T02:26:46.123Z,7.80
2023-04-11T02:29:12.709Z,7.70
2023-04-11T02:31:39.413Z,7.70
2023-04-11T02:34:06.160Z,7.70
2023-04-11T02:36:34.865Z,7.60
2023-04-11T02:39:01.583Z,7.70
2023-04-11T02:41:28.234Z,7.60
2023-04-11T02:43:55.072Z,7.50
2023-04-11T02:46:22.626Z,7.60
2023-04-11T02:48:49.418Z,7.60
2023-04-11T02:51:16.128Z,7.60
2023-04-11T02:53:42.775Z,7.60
2023-04-11T02:56:10.846Z,7.60
2023-04-11T02:58:41.717Z,7.60
2023-04-11T03:01:11.788Z,7.60
2023-04-11T03:03:38.924Z,7.70
2023-04-11T03:06:08.899Z,7.70
2023-04-11T03:08:37.164Z,7.80
2023-04-11T03:11:04.899Z,7.80
2023-04-11T03:13:31.619Z,7.80
2023-04-11T03:15:58.939Z,7.80
2023-04-11T03:18:28.354Z,7.90
2023-04-11T03:20:56.148Z,7.90
2023-04-11T03:23:23.011Z,7.90
2023-04-11T03:25:51.683Z,7.90
2023-04-11T03:28:19.484Z,7.90
2023-04-11T03:30:48.600Z,7.90
2023-04-11T03:33:19.401Z,7.80
2023-04-11T03:35:46.396Z,7.80
2023-04-11T03:38:13.143Z,7.90
2023-04-11T03:40:39.805Z,7.80
2023-04-11T03:43:13.354Z,7.80
2023-04-11T03:45:40.568Z,7.80
2023-04-11T03:48:14.720Z,7.80
2023-04-11T03:51:04.089Z,7.80
2023-04-11T03:53:38.879Z,7.80
2023-04-11T03:56:20.716Z,7.80
2023-04-11T03:58:48.217Z,7.70
2023-04-11T04:01:15.170Z,7.80
2023-04-11T04:03:42.255Z,7.70
2023-04-11T04:06:12.891Z,7.70
2023-04-11T04:08:39.650Z,7.80
2023-04-11T04:11:09.664Z,7.80
2023-04-11T04:13:37.349Z,7.80
2023-04-11T04:16:13.808Z,7.70
2023-04-11T04:18:44.116Z,7.70
2023-04-11T04:21:11.030Z,7.60
2023-04-11T04:23:47.296Z,7.60
2023-04-11T04:26:37.863Z,7.60
2023-04-11T04:29:18.013Z,7.60
2023-04-11T04:31:52.831Z,7.50
2023-04-11T04:34:24.428Z,7.50
2023-04-11T04:36:56.262Z,7.50
2023-04-11T04:39:33.960Z,7.50
2023-04-11T04:42:01.528Z,7.50
2023-04-11T04:44:34.721Z,7.40
2023-04-11T04:47:06.292Z,7.40
2023-04-11T04:49:33.008Z,7.30
2023-04-11T04:52:01.099Z,7.30
2023-04-11T04:54:28.556Z,7.40
2023-04-11T04:56:56.025Z,7.40
2023-04-11T04:59:24.000Z,7.40
2023-04-11T05:01:57.684Z,7.40
2023-04-11T05:04:29.678Z,7.40
2023-04-11T05:06:58.832Z,7.50
2023-04-11T05:09:26.175Z,7.40
2023-04-11T05:11:58.131Z,7.40
2023-04-11T05:14:24.840Z,7.50
2023-04-11T05:16:51.711Z,7.50
2023-04-11T05:19:19.277Z,7.60
2023-04-11T05:21:49.073Z,7.50
2023-04-11T05:24:16.372Z,7.50
2023-04-11T05:26:43.469Z,7.50
2023-04-11T05:29:11.644Z,7.20
2023-04-11T05:31:38.251Z,6.30
2023-04-11T05:34:05.650Z,5.60
2023-04-11T05:36:32.524Z,5.60
2023-04-11T05:39:00.924Z,5.70
2023-04-11T05:41:27.932Z,5.70
2023-04-11T05:43:54.747Z,5.80
2023-04-11T05:46:21.692Z,6.00
2023-04-11T05:48:48.336Z,6.20
2023-04-11T05:51:15.583Z,6.40
2023-04-11T05:53:42.677Z,6.50
2023-04-11T05:56:09.372Z,6.60
2023-04-11T05:58:37.511Z,6.60
2023-04-11T06:01:05.072Z,6.70
2023-04-11T06:03:31.768Z,6.50
2023-04-11T06:06:00.662Z,6.30
2023-04-11T06:08:27.491Z,6.10
2023-04-11T06:10:54.106Z,5.90
2023-04-11T06:13:20.786Z,5.90
2023-04-11T06:15:47.613Z,5.80
2023-04-11T06:18:14.324Z,5.80
2023-04-11T06:20:41.106Z,5.80
2023-04-11T06:23:07.766Z,5.80
2023-04-11T06:25:34.416Z,5.90
2023-04-11T06:28:01.372Z,5.90
2023-04-11T06:30:28.105Z,5.90
2023-04-11T06:32:56.420Z,5.90
2023-04-11T06:35:24.911Z,5.90
2023-04-11T06:37:52.167Z,5.90
2023-04-11T06:40:20.427Z,6.10
2023-04-11T06:42:47.633Z,6.20
2023-04-11T06:45:15.342Z,6.30
2023-04-11T06:47:41.995Z,6.40
2023-04-11T06:50:09.104Z,6.50
2023-04-11T06:52:35.897Z,6.70
2023-04-11T06:55:02.645Z,6.80
2023-04-11T06:57:29.296Z,6.80
2023-04-11T06:59:55.942Z,6.90
2023-04-11T07:02:24.937Z,7.00
2023-04-11T07:04:52.757Z,7.20
2023-04-11T07:07:19.492Z,7.40
2023-04-11T07:09:47.473Z,7.50
2023-04-11T07:12:14.184Z,7.60
2023-04-11T07:14:40.911Z,7.60
2023-04-11T07:17:10.447Z,7.60
2023-04-11T07:19:37.084Z,7.60
2023-04-11T07:22:04.552Z,7.60
2023-04-11T07:24:31.196Z,7.60
2023-04-11T07:27:01.628Z,7.60
2023-04-11T07:29:28.773Z,7.60
2023-04-11T07:31:55.498Z,7.70
2023-04-11T07:34:22.295Z,7.70
2023-04-11T07:36:50.047Z,7.80
2023-04-11T07:39:16.798Z,7.70
2023-04-11T07:41:44.639Z,7.70
2023-04-11T07:44:11.312Z,7.90
2023-04-11T07:46:37.948Z,7.90
2023-04-11T07:49:04.552Z,7.80
2023-04-11T07:51:31.217Z,7.70
2023-04-11T07:53:57.963Z,7.60
2023-04-11T07:56:24.793Z,7.60
2023-04-11T07:58:51.439Z,7.60
2023-04-11T08:01:23.050Z,7.80
2023-04-11T08:03:50.298Z,8.00
2023-04-11T08:06:17.016Z,8.30
2023-04-11T08:08:44.281Z,8.30
2023-04-11T08:11:10.942Z,8.40
2023-04-11T08:13:37.687Z,8.30
2023-04-11T08:16:06.614Z,8.40
2023-04-11T08:18:33.437Z,8.70
2023-04-11T08:21:00.565Z,8.80
2023-04-11T08:23:27.197Z,8.90
2023-04-11T08:25:53.785Z,8.80
2023-04-11T08:28:20.814Z,8.60
2023-04-11T08:30:47.502Z,8.60
2023-04-11T08:33:15.171Z,8.70
2023-04-11T08:35:43.017Z,8.80
2023-04-11T08:38:10.494Z,8.90
2023-04-11T08:40:37.131Z,9.40
2023-04-11T08:43:09.908Z,9.40
2023-04-11T08:45:36.549Z,9.20
2023-04-11T08:48:03.300Z,9.20
2023-04-11T08:50:29.907Z,9.30
2023-04-11T08:52:59.972Z,9.00
2023-04-11T08:55:26.991Z,8.90
2023-04-11T08:57:54.957Z,9.10
2023-04-11T09:00:24.916Z,9.00
2023-04-11T09:03:01.700Z,8.90
2023-04-11T09:05:35.958Z,9.10
2023-04-11T09:08:08.862Z,9.00
2023-04-11T09:10:37.721Z,9.20
2023-04-11T09:13:20.434Z,9.60
2023-04-11T09:15:47.434Z,9.60
2023-04-11T09:18:33.054Z,9.60
2023-04-11T09:21:01.471Z,9.60
2023-04-11T09:23:28.706Z,9.90
2023-04-11T09:25:55.769Z,10.40
2023-04-11T09:28:22.869Z,10.30
2023-04-11T09:30:51.258Z,9.70
2023-04-11T09:33:22.385Z,9.20
2023-04-11T09:35:51.704Z,9.10
2023-04-11T09:38:33.208Z,9.60
2023-04-11T09:41:04.289Z,10.00
2023-04-11T09:43:55.505Z,10.40
2023-04-11T09:46:22.801Z,10.30
2023-04-11T09:48:50.873Z,10.30
2023-04-11T09:51:34.446Z,10.70
2023-04-11T09:54:03.736Z,11.00
2023-04-11T09:56:31.518Z,10.80
2023-04-11T09:59:01.077Z,10.80
2023-04-11T10:01:28.028Z,11.10
2023-04-11T10:03:56.441Z,11.60
2023-04-11T10:06:34.818Z,11.50
2023-04-11T10:09:10.959Z,10.80
2023-04-11T10:11:41.158Z,10.20
2023-04-11T10:14:07.870Z,9.80
2023-04-11T10:16:34.803Z,9.70
2023-04-11T10:19:01.784Z,9.90
2023-04-11T10:21:32.568Z,10.10
2023-04-11T10:24:17.218Z,10.60
2023-04-11T10:26:53.956Z,10.40
2023-04-11T10:29:41.935Z,10.10
2023-04-11T10:32:19.894Z,9.70
2023-04-11T10:34:55.542Z,8.30
2023-04-11T10:37:36.358Z,7.50
2023-04-11T10:40:12.209Z,7.00
2023-04-11T10:42:43.811Z,6.80
2023-04-11T10:45:26.040Z,6.60
2023-04-11T10:48:01.916Z,6.30
2023-04-11T10:50:31.810Z,6.10
2023-04-11T10:53:00.037Z,6.00
2023-04-11T10:55:29.103Z,5.90
2023-04-11T10:58:08.582Z,5.90
2023-04-11T11:00:48.037Z,5.90
2023-04-11T11:03:19.664Z,5.90
2023-04-11T11:05:47.427Z,6.10
2023-04-11T11:08:14.180Z,6.60
2023-04-11T11:10:43.870Z,7.10
2023-04-11T11:13:10.837Z,7.60
2023-04-11T11:15:38.947Z,8.10
2023-04-11T11:18:08.480Z,8.40
2023-04-11T11:20:37.430Z,8.70
2023-04-11T11:23:06.721Z,8.90
2023-04-11T11:25:33.934Z,8.90
2023-04-11T11:28:08.347Z,8.80
2023-04-11T11:30:37.168Z,8.60
2023-04-11T11:33:23.955Z,8.60
2023-04-11T11:35:58.303Z,8.40
2023-04-11T11:38:30.338Z,8.50
2023-04-11T11:40:58.730Z,8.90
2023-04-11T11:43:27.379Z,9.40
2023-04-11T11:46:13.954Z,9.60
2023-04-11T11:48:59.475Z,9.90
2023-04-11T11:51:26.552Z,10.10
2023-04-11T11:54:10.391Z,10.50
2023-04-11T11:56:38.407Z,10.60
2023-04-11T11:59:05.699Z,10.50
2023-04-11T12:01:34.452Z,10.40
2023-04-11T12:04:02.378Z,10.10
2023-04-11T12:06:33.599Z,10.10
2023-04-11T12:09:10.461Z,10.30
2023-04-11T12:11:38.724Z,10.80
2023-04-11T12:14:05.881Z,11.00
2023-04-11T12:16:33.017Z,11.20
2023-04-11T12:19:02.753Z,11.30
2023-04-11T12:21:30.570Z,11.40
2023-04-11T12:23:57.802Z,11.20
2023-04-11T12:26:25.177Z,11.20
2023-04-11T12:28:52.380Z,10.90
2023-04-11T12:31:20.450Z,10.80
2023-04-11T12:33:47.290Z,11.00
2023-04-11T12:36:13.983Z,11.00
2023-04-11T12:38:41.041Z,10.70
2023-04-11T12:41:30.309Z,10.80
2023-04-11T12:43:55.111Z,11.10
2023-04-11T12:46:21.831Z,11.50
2023-04-11T12:48:48.729Z,11.60
2023-04-11T12:51:15.355Z,11.50
2023-04-11T12:53:41.976Z,11.50
2023-04-11T12:56:08.865Z,11.40
2023-04-11T12:58:35.833Z,11.20
2023-04-11T13:01:02.823Z,11.00
2023-04-11T13:03:29.664Z,10.80
2023-04-11T13:05:56.460Z,10.60
2023-04-11T13:08:23.125Z,10.60
2023-04-11T13:10:49.759Z,10.60
2023-04-11T13:13:18.496Z,10.80
2023-04-11T13:15:46.394Z,11.10
2023-04-11T13:18:13.350Z,11.10
2023-04-11T13:20:40.092Z,11.40
2023-04-11T13:23:06.731Z,11.70
2023-04-11T13:25:33.335Z,11.70
2023-04-11T13:28:00.006Z,11.70
2023-04-11T13:30:26.618Z,11.80
2023-04-11T13:32:53.738Z,11.90
2023-04-11T13:35:20.597Z,12.10
2023-04-11T13:37:48.949Z,12.10
2023-04-11T13:40:16.001Z,11.80
2023-04-11T13:42:42.603Z,11.70
2023-04-11T13:45:09.904Z,11.70
2023-04-11T13:47:38.748Z,11.90
2023-04-11T13:50:07.073Z,12.20
2023-04-11T13:52:33.679Z,12.20
2023-04-11T13:55:00.274Z,12.10
2023-04-11T13:57:28.354Z,12.10
2023-04-11T13:59:55.345Z,12.40
2023-04-11T14:02:22.370Z,12.50
2023-04-11T14:04:49.434Z,12.40
2023-04-11T14:07:16.055Z,12.50
2023-04-11T14:09:42.697Z,12.40
2023-04-11T14:12:09.435Z,12.20
2023-04-11T14:14:36.048Z,11.90
2023-04-11T14:17:02.784Z,11.80
2023-04-11T14:19:29.475Z,12.00
2023-04-11T14:21:57.682Z,11.90
2023-04-11T14:24:24.896Z,11.80
2023-04-11T14:26:51.537Z,11.60
2023-04-11T14:29:19.877Z,11.30
2023-04-11T14:31:47.756Z,11.20
2023-04-11T14:34:14.482Z,11.00
2023-04-11T14:36:41.492Z,10.90
2023-04-11T14:39:08.175Z,11.00
2023-04-11T14:41:35.549Z,11.60
2023-04-11T14:44:02.219Z,12.10
2023-04-11T14:46:28.922Z,12.30
2023-04-11T14:48:55.981Z,12.30
2023-04-11T14:51:25.272Z,11.80
2023-04-11T14:53:54.886Z,11.90
2023-04-11T14:56:23.029Z,12.00
2023-04-11T14:58:50.618Z,12.10
2023-04-11T15:01:18.090Z,12.00
2023-04-11T15:03:48.769Z,12.00
2023-04-11T15:06:15.544Z,11.90
2023-04-11T15:08:42.200Z,11.80
2023-04-11T15:11:08.865Z,11.90
2023-04-11T15:13:35.642Z,12.10
2023-04-11T15:16:06.370Z,12.20
2023-04-11T15:18:33.404Z,12.30
2023-04-11T15:21:01.734Z,12.10
2023-04-11T15:23:28.568Z,12.00
2023-04-11T15:25:57.353Z,11.70
2023-04-11T15:28:25.308Z,11.70
2023-04-11T15:30:53.820Z,11.70
2023-04-11T15:33:22.112Z,11.90
2023-04-11T15:35:49.624Z,12.00
2023-04-11T15:38:17.244Z,12.10
2023-04-11T15:40:43.983Z,12.20
2023-04-11T15:43:10.707Z,12.10
2023-04-11T15:45:39.287Z,11.80
2023-04-11T15:48:06.668Z,11.90
2023-04-11T15:50:33.374Z,11.80
2023-04-11T15:53:00.187Z,11.60
2023-04-11T15:55:29.476Z,11.70
2023-04-11T15:57:56.787Z,11.80
2023-04-11T16:00:23.596Z,11.70
2023-04-11T16:02:50.524Z,11.90
2023-04-11T16:05:17.682Z,11.90
2023-04-11T16:07:44.538Z,11.80
2023-04-11T16:10:11.504Z,11.80
2023-04-11T16:12:38.289Z,11.90
2023-04-11T16:15:08.188Z,11.90
2023-04-11T16:17:35.318Z,12.00
2023-04-11T16:20:03.707Z,12.00
2023-04-11T16:22:31.811Z,11.90
2023-04-11T16:24:58.542Z,11.80
2023-04-11T16:27:25.508Z,11.70
2023-04-11T16:29:53.693Z,11.70
2023-04-11T16:32:20.333Z,11.70
2023-04-11T16:34:47.011Z,11.60
2023-04-11T16:37:13.728Z,11.50
2023-04-11T16:39:40.328Z,11.60
2023-04-11T16:42:06.896Z,11.60
2023-04-11T16:44:33.490Z,11.50
2023-04-11T16:47:00.236Z,11.60
2023-04-11T16:49:26.809Z,11.60
2023-04-11T16:51:53.472Z,11.60
2023-04-11T16:54:20.108Z,11.50
2023-04-11T16:56:47.973Z,11.50
2023-04-11T16:59:15.786Z,11.40
2023-04-11T17:01:43.237Z,11.40
2023-04-11T17:04:10.223Z,11.40
2023-04-11T17:06:37.153Z,11.40
2023-04-11T17:09:06.120Z,11.20
2023-04-11T17:11:33.281Z,11.10
2023-04-11T17:14:00.438Z,11.00
2023-04-11T17:16:27.526Z,10.90
2023-04-11T17:18:54.989Z,10.90
2023-04-11T17:21:21.605Z,10.90
2023-04-11T17:23:48.316Z,10.80
2023-04-11T17:26:15.534Z,10.80
2023-04-11T17:28:42.166Z,10.80
2023-04-11T17:31:13.151Z,10.70
2023-04-11T17:33:40.263Z,10.70
2023-04-11T17:36:07.379Z,10.60
2023-04-11T17:38:34.117Z,10.50
2023-04-11T17:41:13.532Z,10.50
2023-04-11T17:43:41.526Z,10.50
2023-04-11T17:46:08.837Z,10.50
2023-04-11T17:48:36.020Z,10.40
2023-04-11T17:51:05.201Z,10.30
2023-04-11T17:53:32.367Z,10.20
2023-04-11T17:56:03.154Z,10.10
2023-04-11T17:58:30.253Z,10.10
2023-04-11T18:00:57.333Z,10.00
2023-04-11T18:03:25.147Z,9.90
2023-04-11T18:05:53.735Z,9.80
2023-04-11T18:08:26.520Z,9.80
2023-04-11T18:11:00.357Z,9.70
2023-04-11T18:13:27.308Z,9.50
2023-04-11T18:15:53.995Z,9.50
2023-04-11T18:18:20.622Z,9.50
2023-04-11T18:20:47.258Z,9.30
2023-04-11T18:23:13.968Z,9.10
2023-04-11T18:25:40.751Z,8.90
2023-04-11T18:28:07.320Z,8.80
2023-04-11T18:30:33.940Z,8.70
2023-04-11T18:33:00.623Z,8.60
2023-04-11T18:35:27.885Z,8.50
2023-04-11T18:37:54.729Z,8.40
2023-04-11T18:40:21.429Z,8.30
2023-04-11T18:42:51.527Z,8.20
2023-04-11T18:45:22.568Z,8.10
2023-04-11T18:47:49.825Z,8.00
2023-04-11T18:50:18.373Z,8.00
2023-04-11T18:52:46.572Z,7.90
2023-04-11T18:55:14.980Z,7.50
2023-04-11T18:57:46.104Z,7.30
2023-04-11T19:00:18.066Z,7.30
2023-04-11T19:02:46.440Z,7.30
2023-04-11T19:05:14.307Z,7.30
2023-04-11T19:07:42.028Z,7.20
2023-04-11T19:10:09.940Z,7.10
2023-04-11T19:12:37.134Z,7.00
2023-04-11T19:15:09.428Z,6.80
2023-04-11T19:17:38.315Z,6.60
2023-04-11T19:20:14.870Z,6.50
2023-04-11T19:22:41.782Z,6.30
2023-04-11T19:25:12.798Z,6.10
2023-04-11T19:27:43.438Z,6.10
2023-04-11T19:30:11.420Z,5.90
2023-04-11T19:32:40.749Z,5.70
2023-04-11T19:35:10.015Z,5.60
2023-04-11T19:37:36.917Z,5.20
2023-04-11T19:40:07.372Z,5.00
2023-04-11T19:42:36.823Z,5.00
2023-04-11T19:45:06.727Z,5.20
2023-04-11T19:47:33.409Z,5.30
2023-04-11T19:50:00.958Z,5.40
2023-04-11T19:52:28.242Z,5.40
2023-04-11T19:54:56.303Z,5.40
2023-04-11T19:57:25.406Z,5.40
2023-04-11T19:59:52.143Z,5.40
2023-04-11T20:02:18.855Z,5.30
2023-04-11T20:04:45.835Z,5.40
2023-04-11T20:07:13.309Z,5.30
2023-04-11T20:09:40.092Z,5.20
2023-04-11T20:12:07.309Z,5.10
2023-04-11T20:14:37.863Z,5.10
2023-04-11T20:17:05.443Z,5.10
2023-04-11T20:19:33.077Z,5.10
2023-04-11T20:22:00.761Z,5.00
2023-04-11T20:24:27.650Z,4.90
2023-04-11T20:26:55.050Z,4.90
2023-04-11T20:29:24.831Z,4.90
2023-04-11T20:31:51.483Z,4.90
2023-04-11T20:34:18.080Z,4.80
2023-04-11T20:36:44.790Z,4.80
2023-04-11T20:39:11.715Z,4.70
2023-04-11T20:41:40.400Z,4.60
2023-04-11T20:44:07.089Z,4.60
2023-04-11T20:46:39.152Z,4.60
2023-04-11T20:49:05.853Z,4.50
2023-04-11T20:51:33.036Z,4.50
2023-04-11T20:53:59.686Z,4.40
2023-04-11T20:56:26.455Z,4.20
2023-04-11T20:58:53.057Z,4.20
2023-04-11T21:01:19.752Z,4.10
2023-04-11T21:03:46.792Z,4.00
2023-04-11T21:06:13.988Z,4.00
2023-04-11T21:08:40.830Z,3.90
2023-04-11T21:11:07.440Z,3.90
2023-04-11T21:13:34.071Z,3.90
2023-04-11T21:16:00.782Z,3.80
2023-04-11T21:18:27.550Z,3.70
2023-04-11T21:20:54.167Z,3.80
2023-04-11T21:23:21.953Z,3.70
2023-04-11T21:25:48.805Z,3.80
2023-04-11T21:28:15.559Z,3.70
2023-04-11T21:30:42.287Z,3.70
2023-04-11T21:33:10.184Z,3.70
2023-04-11T21:35:36.871Z,3.80
2023-04-11T21:38:04.058Z,3.80
2023-04-11T21:40:31.276Z,3.80
2023-04-11T21:42:57.873Z,3.70
2023-04-11T21:45:24.527Z,3.60
2023-04-11T21:47:51.568Z,3.50
2023-04-11T21:50:18.647Z,3.70
2023-04-11T21:52:46.232Z,3.70
2023-04-11T21:55:14.349Z,3.60
2023-04-11T21:57:41.181Z,3.50
2023-04-11T22:00:10.698Z,3.40
2023-04-11T22:02:41.037Z,3.40
2023-04-11T22:05:11.070Z,3.30
2023-04-11T22:07:38.525Z,3.20
2023-04-11T22:10:09.701Z,3.10
2023-04-11T22:12:36.802Z,3.20
2023-04-11T22:15:05.069Z,3.10
2023-04-11T22:17:32.390Z,3.10
2023-04-11T22:19:59.123Z,3.10
2023-04-11T22:22:27.695Z,3.00
2023-04-11T22:24:57.663Z,3.10
2023-04-11T22:27:26.321Z,3.20
2023-04-11T22:29:56.008Z,3.40
2023-04-11T22:32:23.749Z,3.20
2023-04-11T22:34:50.522Z,3.30
2023-04-11T22:37:17.601Z,3.20
2023-04-11T22:39:44.237Z,3.20
2023-04-11T22:42:11.512Z,3.30
2023-04-11T22:44:38.228Z,3.40
2023-04-11T22:47:11.214Z,3.20
2023-04-11T22:49:40.211Z,3.30
2023-04-11T22:52:07.975Z,3.30
2023-04-11T22:54:35.277Z,3.40
2023-04-11T22:57:02.192Z,3.40
2023-04-11T22:59:28.910Z,3.40
2023-04-11T23:01:55.807Z,3.40
2023-04-11T23:04:22.654Z,3.50
2023-04-11T23:06:50.750Z,3.50
2023-04-11T23:09:18.629Z,3.40
2023-04-11T23:11:46.616Z,3.40
2023-04-11T23:14:14.370Z,3.40
2023-04-11T23:16:44.768Z,3.70
2023-04-11T23:19:12.882Z,3.80
2023-04-11T23:21:39.558Z,3.80
2023-04-11T23:24:09.691Z,3.90
2023-04-11T23:26:36.918Z,4.00
2023-04-11T23:29:03.706Z,4.00
2023-04-11T23:31:31.453Z,4.00
2023-04-11T23:33:58.398Z,4.00
2023-04-11T23:36:27.233Z,4.10
2023-04-11T23:38:54.115Z,4.00
2023-04-11T23:41:20.806Z,4.10
2023-04-11T23:43:47.458Z,4.00
2023-04-11T23:46:14.179Z,4.00
2023-04-11T23:48:41.534Z,4.00
2023-04-11T23:51:08.230Z,4.00
2023-04-11T23:53:34.831Z,4.00
2023-04-11T23:56:01.629Z,4.10
2023-04-11T23:58:28.311Z,4.20
